createdAt,value
2019-02-02T00:01:23.951Z,9.87
2019-02-02T00:03:53.273Z,9.53
2019-02-02T00:06:22.330Z,9.27
2019-02-02T00:08:51.076Z,9.77
2019-02-02T00:11:20.001Z,10.03
2019-02-02T00:13:49.923Z,10.07
2019-02-02T00:16:19.105Z,10.77
2019-02-02T00:18:48.302Z,11.27
2019-02-02T00:21:17.044Z,10.03
2019-02-02T00:23:45.965Z,10.70
2019-02-02T00:26:15.178Z,10.80
2019-02-02T00:28:44.065Z,11.87
2019-02-02T00:31:12.970Z,11.23
2019-02-02T00:33:41.880Z,11.00
2019-02-02T00:36:10.732Z,11.40
2019-02-02T00:38:39.490Z,10.83
2019-02-02T00:41:08.544Z,10.30
2019-02-02T00:43:38.582Z,10.93
2019-02-02T00:46:07.724Z,10.83
2019-02-02T00:48:36.536Z,10.43
2019-02-02T00:51:05.679Z,10.57
2019-02-02T00:53:34.561Z,10.60
2019-02-02T00:56:03.571Z,10.43
2019-02-02T00:58:32.304Z,11.00
2019-02-02T01:01:01.211Z,11.10
2019-02-02T01:03:30.265Z,9.90
2019-02-02T01:05:59.129Z,10.13
2019-02-02T01:08:28.237Z,10.70
2019-02-02T01:10:57.178Z,9.87
2019-02-02T01:13:26.146Z,10.50
2019-02-02T01:15:55.067Z,9.87
2019-02-02T01:18:24.241Z,9.50
2019-02-02T01:20:53.081Z,9.67
2019-02-02T01:23:22.064Z,9.57
2019-02-02T01:25:51.055Z,10.30
2019-02-02T01:28:19.936Z,9.87
2019-02-02T01:30:48.860Z,9.43
2019-02-02T01:33:17.824Z,10.47
2019-02-02T01:35:49.980Z,30.43
2019-02-02T01:38:18.834Z,22.67
2019-02-02T01:40:47.645Z,26.27
2019-02-02T01:43:16.661Z,15.07
2019-02-02T01:45:45.690Z,10.53
2019-02-02T01:48:14.732Z,9.37
2019-02-02T01:50:43.533Z,9.80
2019-02-02T01:53:12.387Z,9.97
2019-02-02T01:55:41.397Z,10.03
2019-02-02T01:58:17.034Z,10.77
2019-02-02T02:00:41.098Z,10.20
2019-02-02T02:03:10.036Z,9.67
2019-02-02T02:05:39.145Z,9.57
2019-02-02T02:08:08.212Z,9.37
2019-02-02T02:10:37.344Z,9.87
2019-02-02T02:13:06.280Z,10.30
2019-02-02T02:15:35.180Z,9.50
2019-02-02T02:18:04.296Z,9.20
2019-02-02T02:20:33.271Z,9.70
2019-02-02T02:23:02.153Z,8.83
2019-02-02T02:25:31.159Z,8.67
2019-02-02T02:28:00.045Z,9.73
2019-02-02T02:30:29.020Z,8.80
2019-02-02T02:32:57.878Z,24.13
2019-02-02T02:35:26.659Z,24.40
2019-02-02T02:38:01.643Z,13.93
2019-02-02T02:40:30.583Z,11.07
2019-02-02T02:42:59.345Z,9.80
2019-02-02T02:45:28.229Z,9.90
2019-02-02T02:47:57.138Z,9.80
2019-02-02T02:50:25.965Z,9.40
2019-02-02T02:52:55.129Z,9.40
2019-02-02T02:55:23.866Z,9.17
2019-02-02T02:57:52.608Z,9.50
2019-02-02T03:00:24.700Z,9.70
2019-02-02T03:02:53.510Z,10.53
2019-02-02T03:05:23.148Z,9.63
2019-02-02T03:07:53.455Z,10.13
2019-02-02T03:10:25.351Z,10.07
2019-02-02T03:12:54.809Z,9.53
2019-02-02T03:15:24.708Z,10.33
2019-02-02T03:17:53.790Z,11.67
2019-02-02T03:20:22.775Z,11.17
2019-02-02T03:22:51.885Z,12.03
2019-02-02T03:25:24.268Z,11.43
2019-02-02T03:27:53.518Z,11.77
2019-02-02T03:30:22.755Z,11.13
2019-02-02T03:32:51.593Z,11.57
2019-02-02T03:35:23.833Z,11.37
2019-02-02T03:37:53.104Z,12.20
2019-02-02T03:40:23.078Z,11.77
2019-02-02T03:42:52.247Z,12.00
2019-02-02T03:45:23.995Z,12.53
2019-02-02T03:47:54.483Z,13.13
2019-02-02T03:50:23.410Z,12.93
2019-02-02T03:52:52.566Z,12.40
2019-02-02T03:55:21.541Z,12.10
2019-02-02T03:57:50.526Z,13.47
2019-02-02T04:00:21.661Z,13.10
2019-02-02T04:02:51.225Z,12.70
2019-02-02T04:05:24.094Z,13.13
2019-02-02T04:07:53.299Z,12.83
2019-02-02T04:10:22.279Z,12.63
2019-02-02T04:12:52.400Z,13.20
2019-02-02T04:15:21.660Z,12.13
2019-02-02T04:17:50.508Z,12.57
2019-02-02T04:20:23.567Z,12.23
2019-02-02T04:22:53.002Z,12.73
2019-02-02T04:25:24.503Z,11.83
2019-02-02T04:27:53.527Z,11.83
2019-02-02T04:30:24.558Z,11.70
2019-02-02T04:32:53.514Z,11.83
2019-02-02T04:35:22.637Z,13.07
2019-02-02T04:37:51.579Z,12.90
2019-02-02T04:40:20.939Z,13.27
2019-02-02T04:42:49.859Z,11.87
2019-02-02T04:45:18.926Z,12.50
2019-02-02T04:47:47.756Z,12.37
2019-02-02T04:50:17.760Z,12.47
2019-02-02T04:52:46.688Z,12.10
2019-02-02T04:55:18.813Z,12.30
2019-02-02T04:57:48.259Z,13.17
2019-02-02T05:00:20.517Z,24.53
2019-02-02T05:02:49.455Z,41.90
2019-02-02T05:05:18.465Z,15.50
2019-02-02T05:07:47.594Z,13.50
2019-02-02T05:10:20.546Z,13.27
2019-02-02T05:12:49.471Z,15.67
2019-02-02T05:15:19.405Z,15.03
2019-02-02T05:17:48.275Z,14.53
2019-02-02T05:20:17.308Z,15.40
2019-02-02T05:22:46.828Z,18.63
2019-02-02T05:25:16.157Z,18.13
2019-02-02T05:27:45.174Z,16.73
2019-02-02T05:30:17.566Z,16.10
2019-02-02T05:32:46.506Z,16.23
2019-02-02T05:35:15.372Z,16.07
2019-02-02T05:37:44.511Z,16.20
2019-02-02T05:40:15.986Z,17.90
2019-02-02T05:42:44.881Z,16.63
2019-02-02T05:45:18.694Z,17.47
2019-02-02T05:47:47.701Z,16.00
2019-02-02T05:50:19.496Z,16.93
2019-02-02T05:52:48.507Z,24.97
2019-02-02T05:55:17.740Z,18.37
2019-02-02T05:57:47.695Z,17.50
2019-02-02T06:00:35.458Z,17.17
2019-02-02T06:03:07.174Z,17.63
2019-02-02T06:05:36.013Z,18.40
2019-02-02T06:08:05.151Z,18.90
2019-02-02T06:10:34.100Z,16.97
2019-02-02T06:13:02.983Z,18.27
2019-02-02T06:15:31.834Z,19.00
2019-02-02T06:18:00.929Z,18.20
2019-02-02T06:20:29.674Z,17.47
2019-02-02T06:22:58.504Z,17.23
2019-02-02T06:25:27.609Z,17.73
2019-02-02T06:27:56.707Z,18.97
2019-02-02T06:30:26.034Z,18.63
2019-02-02T06:32:54.890Z,30.13
2019-02-02T06:35:23.789Z,19.87
2019-02-02T06:37:52.902Z,18.07
2019-02-02T06:40:21.800Z,19.33
2019-02-02T06:42:50.623Z,21.17
2019-02-02T06:45:39.935Z,19.87
2019-02-02T06:48:08.901Z,20.27
2019-02-02T06:50:37.766Z,18.43
2019-02-02T06:53:06.767Z,19.73
2019-02-02T06:55:35.588Z,24.07
2019-02-02T06:58:05.174Z,23.63
2019-02-02T07:00:34.322Z,19.97
2019-02-02T07:03:03.291Z,19.83
2019-02-02T07:05:33.929Z,20.13
2019-02-02T07:08:02.963Z,19.37
2019-02-02T07:10:31.926Z,20.23
2019-02-02T07:13:00.837Z,19.00
2019-02-02T07:15:30.014Z,18.93
2019-02-02T07:17:58.836Z,20.07
2019-02-02T07:20:27.862Z,20.30
2019-02-02T07:22:56.864Z,19.87
2019-02-02T07:25:26.262Z,20.97
2019-02-02T07:27:55.086Z,19.93
2019-02-02T07:30:28.610Z,24.27
2019-02-02T07:32:55.112Z,29.67
2019-02-02T07:35:24.024Z,21.53
2019-02-02T07:37:53.261Z,22.07
2019-02-02T07:40:22.511Z,21.57
2019-02-02T07:42:51.470Z,20.37
2019-02-02T07:45:29.521Z,20.57
2019-02-02T07:47:58.448Z,20.57
2019-02-02T07:50:27.612Z,22.13
2019-02-02T07:52:56.679Z,20.53
2019-02-02T07:55:25.603Z,19.13
2019-02-02T07:57:54.390Z,20.60
2019-02-02T08:00:40.297Z,19.73
2019-02-02T08:03:01.731Z,19.80
2019-02-02T08:05:30.705Z,33.43
2019-02-02T08:07:59.702Z,21.67
2019-02-02T08:10:28.626Z,20.13
2019-02-02T08:12:57.786Z,20.33
2019-02-02T08:15:30.187Z,22.80
2019-02-02T08:17:59.019Z,22.47
2019-02-02T08:20:28.321Z,22.30
2019-02-02T08:22:57.135Z,21.80
2019-02-02T08:25:26.150Z,20.83
2019-02-02T08:27:55.378Z,21.60
2019-02-02T08:30:28.053Z,29.03
2019-02-02T08:32:57.146Z,22.40
2019-02-02T08:35:26.351Z,20.83
2019-02-02T08:37:55.362Z,21.33
2019-02-02T08:40:24.636Z,28.07
2019-02-02T08:42:53.712Z,23.03
2019-02-02T08:45:22.662Z,21.83
2019-02-02T08:47:51.624Z,21.03
2019-02-02T08:50:28.058Z,20.70
2019-02-02T08:52:56.954Z,21.63
2019-02-02T08:55:26.258Z,22.13
2019-02-02T08:57:55.086Z,23.70
2019-02-02T09:00:24.053Z,21.47
2019-02-02T09:02:52.955Z,21.83
2019-02-02T09:05:22.401Z,21.47
2019-02-02T09:07:52.092Z,25.77
2019-02-02T09:10:24.017Z,25.97
2019-02-02T09:12:53.104Z,22.83
2019-02-02T09:15:22.496Z,29.67
2019-02-02T09:17:51.817Z,23.83
2019-02-02T09:20:20.794Z,22.37
2019-02-02T09:23:02.674Z,23.70
2019-02-02T09:25:21.041Z,22.30
2019-02-02T09:27:50.116Z,39.77
2019-02-02T09:30:24.534Z,45.10
2019-02-02T09:32:54.575Z,25.83
2019-02-02T09:35:23.510Z,23.23
2019-02-02T09:37:52.523Z,23.03
2019-02-02T09:40:21.620Z,23.87
2019-02-02T09:42:51.223Z,24.17
2019-02-02T09:45:20.631Z,23.57
2019-02-02T09:47:50.135Z,23.57
2019-02-02T09:50:22.963Z,23.43
2019-02-02T09:52:51.996Z,23.90
2019-02-02T09:55:23.785Z,23.13
2019-02-02T09:57:56.803Z,22.83
2019-02-02T10:00:30.719Z,23.17
2019-02-02T10:02:59.668Z,22.63
2019-02-02T10:05:34.084Z,23.23
2019-02-02T10:08:03.031Z,23.27
2019-02-02T10:10:34.109Z,72.53
2019-02-02T10:13:04.108Z,29.80
2019-02-02T10:15:33.101Z,24.53
2019-02-02T10:18:01.921Z,23.70
2019-02-02T10:20:31.210Z,22.43
2019-02-02T10:23:00.442Z,22.43
2019-02-02T10:25:30.414Z,22.30
2019-02-02T10:27:59.674Z,23.67
2019-02-02T10:30:31.908Z,24.57
2019-02-02T10:33:00.923Z,22.90
2019-02-02T10:35:31.436Z,22.93
2019-02-02T10:38:00.534Z,33.40
2019-02-02T10:40:30.158Z,25.20
2019-02-02T10:42:59.451Z,23.93
2019-02-02T10:45:28.312Z,24.37
2019-02-02T10:47:57.153Z,24.27
2019-02-02T10:50:27.941Z,23.27
2019-02-02T10:52:56.959Z,23.73
2019-02-02T10:55:25.878Z,24.50
2019-02-02T10:57:54.968Z,25.73
2019-02-02T11:00:28.181Z,24.50
2019-02-02T11:02:57.338Z,26.07
2019-02-02T11:05:26.341Z,24.87
2019-02-02T11:07:55.646Z,25.93
2019-02-02T11:10:28.522Z,26.60
2019-02-02T11:12:58.203Z,24.03
2019-02-02T11:15:27.555Z,24.57
2019-02-02T11:17:56.677Z,24.97
2019-02-02T11:20:28.703Z,25.80
2019-02-02T11:22:57.941Z,24.83
2019-02-02T11:25:27.360Z,25.17
2019-02-02T11:27:56.727Z,25.73
2019-02-02T11:30:27.919Z,25.23
2019-02-02T11:32:57.800Z,26.27
2019-02-02T11:35:26.752Z,30.03
2019-02-02T11:37:55.777Z,33.27
2019-02-02T11:40:30.457Z,27.67
2019-02-02T11:42:59.742Z,26.50
2019-02-02T11:45:29.191Z,34.67
2019-02-02T11:47:58.117Z,29.80
2019-02-02T11:50:27.833Z,27.23
2019-02-02T11:52:57.374Z,27.63
2019-02-02T11:55:26.370Z,26.67
2019-02-02T11:57:55.456Z,32.37
2019-02-02T12:00:31.446Z,32.20
2019-02-02T12:03:00.386Z,28.07
2019-02-02T12:05:29.777Z,43.10
2019-02-02T12:08:01.547Z,28.93
2019-02-02T12:10:31.168Z,29.43
2019-02-02T12:12:59.912Z,27.47
2019-02-02T12:15:29.149Z,26.83
2019-02-02T12:17:57.983Z,25.57
2019-02-02T12:20:27.222Z,25.80
2019-02-02T12:22:56.523Z,27.10
2019-02-02T12:25:25.445Z,25.83
2019-02-02T12:27:54.294Z,27.27
2019-02-02T12:30:30.119Z,27.00
2019-02-02T12:33:02.749Z,28.03
2019-02-02T12:35:30.356Z,28.20
2019-02-02T12:37:59.265Z,27.27
2019-02-02T12:40:28.390Z,27.90
2019-02-02T12:42:57.253Z,29.33
2019-02-02T12:45:34.353Z,29.10
2019-02-02T12:48:04.513Z,27.63
2019-02-02T12:50:33.451Z,29.77
2019-02-02T12:53:02.679Z,28.43
2019-02-02T12:55:32.127Z,28.17
2019-02-02T12:58:00.925Z,29.60
2019-02-02T13:00:30.120Z,28.63
2019-02-02T13:02:59.213Z,27.70
2019-02-02T13:05:29.153Z,30.00
2019-02-02T13:07:58.039Z,30.43
2019-02-02T13:10:27.992Z,28.67
2019-02-02T13:12:57.499Z,30.30
2019-02-02T13:15:26.539Z,35.97
2019-02-02T13:17:55.984Z,34.20
2019-02-02T13:20:25.133Z,31.33
2019-02-02T13:22:54.561Z,30.13
2019-02-02T13:25:24.003Z,30.97
2019-02-02T13:27:53.340Z,29.80
2019-02-02T13:30:26.989Z,29.33
2019-02-02T13:32:55.788Z,30.07
2019-02-02T13:35:25.306Z,28.90
2019-02-02T13:37:54.940Z,29.43
2019-02-02T13:40:24.377Z,28.57
2019-02-02T13:42:53.298Z,29.67
2019-02-02T13:45:23.096Z,28.73
2019-02-02T13:47:51.963Z,28.13
2019-02-02T13:50:21.288Z,29.97
2019-02-02T13:52:51.876Z,29.03
2019-02-02T13:55:20.772Z,28.67
2019-02-02T13:57:49.607Z,28.50
2019-02-02T14:00:27.163Z,27.40
2019-02-02T14:03:03.525Z,32.70
2019-02-02T14:05:32.482Z,32.80
2019-02-02T14:08:01.669Z,29.20
2019-02-02T14:10:31.353Z,29.00
2019-02-02T14:13:00.202Z,28.90
2019-02-02T14:15:29.288Z,28.00
2019-02-02T14:17:58.137Z,29.90
2019-02-02T14:20:27.015Z,28.80
2019-02-02T14:22:56.354Z,26.57
2019-02-02T14:25:25.341Z,28.53
2019-02-02T14:27:54.512Z,27.07
2019-02-02T14:30:25.660Z,27.60
2019-02-02T14:32:55.364Z,26.97
2019-02-02T14:35:28.057Z,35.57
2019-02-02T14:37:57.074Z,93.47
2019-02-02T14:40:25.820Z,42.13
2019-02-02T14:42:54.585Z,30.53
2019-02-02T14:45:27.618Z,29.57
2019-02-02T14:47:56.426Z,27.40
2019-02-02T14:50:25.783Z,29.63
2019-02-02T14:52:55.376Z,36.10
2019-02-02T14:55:28.053Z,32.83
2019-02-02T14:57:57.387Z,31.43
2019-02-02T15:00:28.100Z,31.23
2019-02-02T15:02:57.267Z,31.73
2019-02-02T15:05:27.141Z,30.77
2019-02-02T15:07:56.092Z,31.00
2019-02-02T15:10:26.081Z,32.77
2019-02-02T15:12:54.879Z,32.50
2019-02-02T15:15:24.041Z,32.73
2019-02-02T15:17:53.306Z,33.53
2019-02-02T15:20:33.474Z,34.53
2019-02-02T15:23:02.549Z,33.73
2019-02-02T15:25:32.876Z,31.37
2019-02-02T15:28:01.661Z,32.77
2019-02-02T15:30:31.036Z,31.60
2019-02-02T15:33:00.281Z,33.03
2019-02-02T15:35:29.238Z,31.40
2019-02-02T15:37:58.567Z,34.23
2019-02-02T15:40:27.527Z,31.83
2019-02-02T15:42:56.566Z,33.97
2019-02-02T15:45:26.995Z,32.27
2019-02-02T15:47:55.910Z,32.10
2019-02-02T15:50:24.894Z,31.83
2019-02-02T15:52:54.061Z,32.50
2019-02-02T15:55:23.718Z,32.20
2019-02-02T15:57:52.514Z,31.73
2019-02-02T16:00:27.674Z,31.37
2019-02-02T16:02:56.749Z,32.93
2019-02-02T16:05:25.921Z,31.83
2019-02-02T16:07:55.169Z,31.07
2019-02-02T16:10:27.009Z,32.00
2019-02-02T16:12:56.210Z,32.03
2019-02-02T16:15:25.026Z,33.47
2019-02-02T16:17:54.321Z,33.47
2019-02-02T16:20:25.634Z,32.30
2019-02-02T16:22:54.944Z,36.10
2019-02-02T16:25:23.866Z,34.60
2019-02-02T16:27:52.663Z,33.13
2019-02-02T16:30:25.172Z,28.87
2019-02-02T16:32:54.026Z,30.50
2019-02-02T16:35:23.084Z,30.63
2019-02-02T16:37:57.336Z,29.63
2019-02-02T16:40:27.788Z,31.97
2019-02-02T16:42:56.609Z,32.20
2019-02-02T16:45:28.202Z,30.20
2019-02-02T16:47:59.637Z,31.30
2019-02-02T16:50:29.014Z,30.37
2019-02-02T16:52:57.884Z,31.93
2019-02-02T16:55:27.073Z,30.50
2019-02-02T16:57:55.868Z,30.33
2019-02-02T17:00:31.230Z,29.70
2019-02-02T17:03:00.280Z,30.87
2019-02-02T17:05:29.082Z,31.27
2019-02-02T17:07:58.436Z,31.63
2019-02-02T17:10:31.383Z,30.67
2019-02-02T17:13:00.279Z,32.93
2019-02-02T17:15:29.449Z,31.33
2019-02-02T17:17:58.945Z,31.47
2019-02-02T17:20:37.318Z,31.73
2019-02-02T17:23:06.337Z,33.53
2019-02-02T17:25:35.243Z,32.53
2019-02-02T17:28:04.789Z,32.40
2019-02-02T17:30:33.653Z,33.20
2019-02-02T17:33:04.808Z,32.23
2019-02-02T17:35:33.562Z,33.03
2019-02-02T17:38:02.413Z,32.70
2019-02-02T17:40:31.468Z,32.80
2019-02-02T17:43:00.302Z,33.67
2019-02-02T17:45:29.291Z,33.20
2019-02-02T17:47:58.613Z,34.00
2019-02-02T17:50:27.583Z,35.10
2019-02-02T17:52:56.592Z,34.40
2019-02-02T17:55:25.714Z,34.87
2019-02-02T17:57:54.784Z,34.30
2019-02-02T18:00:45.597Z,97.27
2019-02-02T18:03:14.445Z,109.00
2019-02-02T18:05:44.300Z,39.97
2019-02-02T18:08:13.167Z,36.73
2019-02-02T18:10:42.285Z,40.77
2019-02-02T18:13:11.245Z,38.33
2019-02-02T18:15:40.108Z,35.70
2019-02-02T18:18:09.494Z,37.63
2019-02-02T18:20:38.696Z,38.53
2019-02-02T18:23:07.448Z,37.43
2019-02-02T18:25:36.270Z,37.70
2019-02-02T18:28:05.426Z,36.70
2019-02-02T18:30:34.242Z,38.03
2019-02-02T18:33:03.087Z,38.47
2019-02-02T18:35:32.308Z,37.67
2019-02-02T18:38:01.145Z,38.40
2019-02-02T18:40:30.058Z,37.67
2019-02-02T18:42:59.301Z,36.70
2019-02-02T18:45:28.463Z,41.07
2019-02-02T18:47:57.702Z,37.63
2019-02-02T18:50:26.526Z,39.07
2019-02-02T18:52:55.305Z,37.80
2019-02-02T18:55:46.850Z,39.47
2019-02-02T18:58:15.770Z,40.53
2019-02-02T19:00:44.889Z,39.60
2019-02-02T19:03:14.752Z,42.03
2019-02-02T19:05:43.838Z,41.33
2019-02-02T19:08:12.933Z,40.97
2019-02-02T19:10:42.135Z,41.67
2019-02-02T19:13:11.230Z,45.53
2019-02-02T19:15:40.205Z,55.10
2019-02-02T19:18:09.560Z,45.80
2019-02-02T19:20:38.598Z,42.87
2019-02-02T19:23:07.908Z,49.50
2019-02-02T19:25:37.836Z,44.17
2019-02-02T19:28:08.082Z,43.70
2019-02-02T19:30:36.990Z,43.73
2019-02-02T19:33:06.206Z,46.47
2019-02-02T19:35:35.057Z,43.40
2019-02-02T19:38:04.010Z,42.57
2019-02-02T19:40:32.881Z,41.20
2019-02-02T19:43:01.609Z,43.17
2019-02-02T19:45:30.533Z,42.50
2019-02-02T19:47:59.657Z,45.60
2019-02-02T19:50:29.217Z,43.40
2019-02-02T19:52:58.199Z,48.23
2019-02-02T19:55:27.025Z,44.43
2019-02-02T19:57:55.936Z,43.67
2019-02-02T20:00:27.403Z,42.37
2019-02-02T20:02:56.596Z,48.30
2019-02-02T20:05:28.620Z,43.20
2019-02-02T20:07:56.317Z,43.47
2019-02-02T20:10:25.385Z,47.03
2019-02-02T20:12:54.210Z,47.13
2019-02-02T20:15:24.507Z,45.83
2019-02-02T20:17:53.600Z,41.70
2019-02-02T20:20:25.008Z,40.57
2019-02-02T20:22:54.870Z,41.70
2019-02-02T20:25:23.673Z,40.87
2019-02-02T20:27:52.749Z,40.47
2019-02-02T20:30:26.317Z,38.97
2019-02-02T20:32:56.582Z,39.83
2019-02-02T20:35:25.585Z,40.17
2019-02-02T20:37:54.507Z,38.87
2019-02-02T20:40:35.335Z,39.50
2019-02-02T20:43:04.438Z,39.57
2019-02-02T20:45:36.254Z,39.67
2019-02-02T20:48:05.482Z,38.83
2019-02-02T20:50:34.472Z,41.03
2019-02-02T20:53:03.295Z,38.77
2019-02-02T20:55:36.023Z,39.77
2019-02-02T20:58:06.027Z,39.30
2019-02-02T21:00:34.901Z,38.67
2019-02-02T21:03:03.822Z,39.60
2019-02-02T21:05:32.964Z,38.93
2019-02-02T21:08:03.224Z,38.00
2019-02-02T21:10:31.941Z,37.33
2019-02-02T21:13:00.684Z,105.90
2019-02-02T21:15:30.097Z,40.10
2019-02-02T21:17:58.876Z,36.87
2019-02-02T21:20:29.101Z,35.63
2019-02-02T21:22:58.345Z,37.30
2019-02-02T21:25:27.528Z,36.30
2019-02-02T21:27:56.373Z,36.20
2019-02-02T21:30:38.479Z,35.63
2019-02-02T21:33:07.674Z,53.10
2019-02-02T21:35:36.574Z,38.47
2019-02-02T21:38:06.431Z,35.93
2019-02-02T21:40:37.321Z,34.07
2019-02-02T21:43:15.138Z,35.00
2019-02-02T21:45:43.921Z,33.13
2019-02-02T21:48:12.651Z,34.47
2019-02-02T21:50:41.724Z,39.37
2019-02-02T21:53:10.526Z,36.47
2019-02-02T21:55:39.351Z,35.33
2019-02-02T21:58:08.744Z,35.17
2019-02-02T22:00:40.594Z,31.90
2019-02-02T22:03:10.210Z,34.33
2019-02-02T22:05:39.829Z,35.10
2019-02-02T22:08:09.618Z,32.73
2019-02-02T22:10:39.319Z,34.00
2019-02-02T22:13:09.573Z,34.87
2019-02-02T22:15:38.544Z,35.93
2019-02-02T22:18:07.720Z,34.83
2019-02-02T22:20:37.137Z,34.20
2019-02-02T22:23:05.948Z,34.70
2019-02-02T22:25:34.693Z,34.00
2019-02-02T22:28:03.787Z,35.00
2019-02-02T22:30:35.959Z,34.70
2019-02-02T22:33:05.853Z,34.10
2019-02-02T22:35:36.418Z,34.70
2019-02-02T22:38:05.380Z,35.80
2019-02-02T22:40:34.327Z,36.10
2019-02-02T22:43:03.127Z,36.27
2019-02-02T22:45:32.333Z,34.97
2019-02-02T22:48:01.210Z,34.37
2019-02-02T22:50:30.417Z,34.90
2019-02-02T22:52:59.381Z,37.57
2019-02-02T22:55:28.446Z,37.50
2019-02-02T22:57:57.521Z,34.83
2019-02-02T23:00:54.201Z,36.17
2019-02-02T23:03:27.195Z,36.10
2019-02-02T23:06:18.188Z,35.43
2019-02-02T23:09:19.136Z,37.43
2019-02-02T23:12:23.344Z,36.00
2019-02-02T23:15:14.043Z,35.47
2019-02-02T23:17:43.270Z,34.27
2019-02-02T23:20:12.095Z,36.73
2019-02-02T23:22:40.961Z,38.07
2019-02-02T23:25:10.120Z,35.27
2019-02-02T23:27:38.916Z,35.40
2019-02-02T23:30:08.788Z,35.57
2019-02-02T23:32:37.660Z,33.27
2019-02-02T23:35:06.740Z,35.40
2019-02-02T23:37:35.506Z,35.57
2019-02-02T23:40:05.201Z,35.00
2019-02-02T23:42:34.151Z,32.40
2019-02-02T23:45:03.440Z,34.67
2019-02-02T23:47:32.225Z,35.53
2019-02-02T23:50:00.990Z,36.53
2019-02-02T23:52:29.871Z,37.20
2019-02-02T23:54:58.676Z,37.50
2019-02-02T23:57:27.502Z,37.50
2019-02-02T23:59:56.241Z,37.60
